WJA2226 CYYC-MKJS
Flight info
| Callsign | WJA2226 |
|---|---|
| Flight time | 5h 37m |
| Altitude | 35000 |
| Route | NOSIV Q909 DESNU DCT ANJLA DCT SWTHN DCT HUTEP DCT CROCK/N0451F370 DCT KISTS DCT ACORI DCT HEVVN DCT ENDEW Q81 FARLU DCT THMPR Y290 FEMID Q79 VAULT/N0454F380 Q79 MCLAW Y442 FUNDI/N0458F370 UM335 ALVEK DCT KATAL DCT ADSEL LENAR7 |
| Aircraft | B38M/M-SDE1FGHILORVWXY/HB1 |
Departure
| Time | 2026-04-26 21:24 |
|---|---|
| Airport | Calgary International Airport (CYYC) |
Arrival
| Time | 2026-04-27 03:01 |
|---|---|
| Airport | Sangster International Airport (MKJS) |
| Time | Latitude | Longitude | Altitude | Speed | Heading |
|---|---|---|---|---|---|
| 2026-04-26 20:53 | 51.12864 | -114.00747 | 3560 ft | 0 kts | 273° |
| 2026-04-26 21:10 | 51.12864 | -114.00746 | 3559 ft | 2 kts | 273° |
| 2026-04-26 21:10 | 51.12865 | -114.00705 | 3565 ft | 4 kts | 262° |
| 2026-04-26 21:10 | 51.12871 | -114.00666 | 3559 ft | 4 kts | 240° |
| 2026-04-26 21:10 | 51.12888 | -114.00640 | 3559 ft | 4 kts | 190° |
| 2026-04-26 21:11 | 51.12898 | -114.00638 | 3564 ft | 1 kts | 180° |
| 2026-04-26 21:11 | 51.12899 | -114.00638 | 3564 ft | 0 kts | 180° |
| 2026-04-26 21:14 | 51.12897 | -114.00638 | 3558 ft | 1 kts | 180° |
| 2026-04-26 21:14 | 51.12870 | -114.00638 | 3562 ft | 7 kts | 180° |
| 2026-04-26 21:15 | 51.12820 | -114.00638 | 3564 ft | 7 kts | 179° |
| 2026-04-26 21:15 | 51.12769 | -114.00638 | 3563 ft | 8 kts | 179° |
| 2026-04-26 21:15 | 51.12713 | -114.00639 | 3563 ft | 8 kts | 181° |
| 2026-04-26 21:15 | 51.12655 | -114.00638 | 3565 ft | 9 kts | 170° |
| 2026-04-26 21:16 | 51.12616 | -114.00572 | 3566 ft | 9 kts | 100° |
| 2026-04-26 21:16 | 51.12615 | -114.00469 | 3568 ft | 10 kts | 89° |
| 2026-04-26 21:16 | 51.12615 | -114.00351 | 3568 ft | 11 kts | 90° |
| 2026-04-26 21:16 | 51.12616 | -114.00216 | 3568 ft | 13 kts | 90° |
| 2026-04-26 21:17 | 51.12616 | -114.00074 | 3568 ft | 13 kts | 90° |
| 2026-04-26 21:17 | 51.12616 | -113.99927 | 3568 ft | 13 kts | 90° |
| 2026-04-26 21:17 | 51.12617 | -113.99776 | 3568 ft | 14 kts | 90° |
| 2026-04-26 21:17 | 51.12617 | -113.99621 | 3568 ft | 14 kts | 90° |
| 2026-04-26 21:18 | 51.12607 | -113.99472 | 3560 ft | 13 kts | 123° |
| 2026-04-26 21:18 | 51.12523 | -113.99444 | 3563 ft | 13 kts | 180° |
| 2026-04-26 21:18 | 51.12432 | -113.99444 | 3564 ft | 13 kts | 180° |
| 2026-04-26 21:18 | 51.12338 | -113.99445 | 3562 ft | 14 kts | 180° |
| 2026-04-26 21:19 | 51.12234 | -113.99445 | 3566 ft | 16 kts | 180° |
| 2026-04-26 21:19 | 51.12120 | -113.99445 | 3565 ft | 15 kts | 180° |
| 2026-04-26 21:19 | 51.12011 | -113.99446 | 3559 ft | 16 kts | 180° |
| 2026-04-26 21:19 | 51.11904 | -113.99446 | 3563 ft | 16 kts | 180° |
| 2026-04-26 21:20 | 51.11796 | -113.99446 | 3563 ft | 16 kts | 180° |
| 2026-04-26 21:20 | 51.11688 | -113.99447 | 3562 ft | 16 kts | 180° |
| 2026-04-26 21:20 | 51.11580 | -113.99447 | 3568 ft | 15 kts | 180° |
| 2026-04-26 21:20 | 51.11474 | -113.99447 | 3566 ft | 15 kts | 180° |
| 2026-04-26 21:21 | 51.11370 | -113.99447 | 3567 ft | 14 kts | 179° |
| 2026-04-26 21:21 | 51.11276 | -113.99447 | 3564 ft | 13 kts | 180° |
| 2026-04-26 21:21 | 51.11193 | -113.99448 | 3572 ft | 11 kts | 180° |
| 2026-04-26 21:21 | 51.11111 | -113.99448 | 3568 ft | 13 kts | 179° |
| 2026-04-26 21:22 | 51.11035 | -113.99375 | 3572 ft | 15 kts | 106° |
| 2026-04-26 21:22 | 51.11034 | -113.99217 | 3579 ft | 15 kts | 90° |
| 2026-04-26 21:22 | 51.11035 | -113.99073 | 3579 ft | 10 kts | 76° |
| 2026-04-26 21:23 | 51.11271 | -113.99037 | 3568 ft | 57 kts | 360° |
| 2026-04-26 21:23 | 51.11882 | -113.99037 | 3568 ft | 117 kts | 0° |
| 2026-04-26 21:23 | 51.12860 | -113.99038 | 3567 ft | 162 kts | 360° |
| 2026-04-26 21:23 | 51.14069 | -113.99041 | 3943 ft | 181 kts | 0° |
| 2026-04-26 21:24 | 51.15333 | -113.99092 | 4932 ft | 176 kts | 358° |
| 2026-04-26 21:24 | 51.16556 | -113.99174 | 5687 ft | 181 kts | 358° |
| 2026-04-26 21:24 | 51.17887 | -113.99247 | 6082 ft | 203 kts | 358° |
| 2026-04-26 21:24 | 51.19368 | -113.99321 | 6523 ft | 225 kts | 359° |
| 2026-04-26 21:25 | 51.20950 | -113.98826 | 6964 ft | 242 kts | 31° |
| 2026-04-26 21:25 | 51.22014 | -113.96806 | 7840 ft | 246 kts | 68° |
| 2026-04-26 21:25 | 51.22146 | -113.94039 | 8483 ft | 263 kts | 102° |
| 2026-04-26 21:25 | 51.21369 | -113.91300 | 8991 ft | 282 kts | 125° |
| 2026-04-26 21:26 | 51.20125 | -113.88857 | 9697 ft | 289 kts | 128° |
| 2026-04-26 21:26 | 51.18855 | -113.86340 | 10439 ft | 298 kts | 128° |
| 2026-04-26 21:26 | 51.17536 | -113.83653 | 10826 ft | 317 kts | 127° |
| 2026-04-26 21:26 | 51.16149 | -113.80760 | 11164 ft | 338 kts | 127° |
| 2026-04-26 21:27 | 51.14687 | -113.77704 | 11561 ft | 354 kts | 127° |
| 2026-04-26 21:27 | 51.13160 | -113.74532 | 12155 ft | 362 kts | 127° |
| 2026-04-26 21:27 | 51.11612 | -113.71360 | 12951 ft | 366 kts | 128° |
| 2026-04-26 21:27 | 51.10031 | -113.68146 | 13657 ft | 371 kts | 128° |
| 2026-04-26 21:28 | 51.08427 | -113.64900 | 14326 ft | 375 kts | 128° |
| 2026-04-26 21:28 | 51.06819 | -113.61648 | 14961 ft | 378 kts | 127° |
| 2026-04-26 21:28 | 51.05179 | -113.58343 | 15602 ft | 382 kts | 127° |
| 2026-04-26 21:28 | 51.03523 | -113.55011 | 16235 ft | 385 kts | 127° |
| 2026-04-26 21:29 | 51.01851 | -113.51654 | 16846 ft | 389 kts | 127° |
| 2026-04-26 21:29 | 51.00189 | -113.48322 | 17467 ft | 392 kts | 126° |
| 2026-04-26 21:29 | 50.98482 | -113.44907 | 18055 ft | 395 kts | 126° |
| 2026-04-26 21:29 | 50.96756 | -113.41456 | 18620 ft | 399 kts | 126° |
| 2026-04-26 21:30 | 50.95015 | -113.37984 | 19103 ft | 402 kts | 126° |
| 2026-04-26 21:30 | 50.93267 | -113.34501 | 19598 ft | 405 kts | 126° |
| 2026-04-26 21:30 | 50.91524 | -113.31036 | 20086 ft | 408 kts | 126° |
| 2026-04-26 21:30 | 50.90387 | -113.28586 | 20393 ft | 408 kts | 119° |
| 2026-04-26 21:31 | 50.88460 | -113.23467 | 21059 ft | 410 kts | 119° |
| 2026-04-26 21:31 | 50.86965 | -113.19606 | 21556 ft | 413 kts | 119° |
| 2026-04-26 21:31 | 50.85442 | -113.15726 | 22021 ft | 416 kts | 119° |
| 2026-04-26 21:31 | 50.83902 | -113.11833 | 22483 ft | 419 kts | 120° |
| 2026-04-26 21:32 | 50.82342 | -113.07907 | 22903 ft | 423 kts | 120° |
| 2026-04-26 21:32 | 50.80773 | -113.03962 | 23366 ft | 425 kts | 120° |
| 2026-04-26 21:32 | 50.79185 | -112.99980 | 23801 ft | 428 kts | 120° |
| 2026-04-26 21:32 | 50.77591 | -112.95989 | 24163 ft | 431 kts | 120° |
| 2026-04-26 21:33 | 50.76006 | -112.92024 | 24526 ft | 433 kts | 120° |
| 2026-04-26 21:33 | 50.74388 | -112.87986 | 24896 ft | 436 kts | 120° |
| 2026-04-26 21:33 | 50.72763 | -112.83934 | 25258 ft | 438 kts | 120° |
| 2026-04-26 21:33 | 50.71136 | -112.79885 | 25602 ft | 440 kts | 121° |
| 2026-04-26 21:34 | 50.69469 | -112.75742 | 25948 ft | 443 kts | 121° |
| 2026-04-26 21:34 | 50.67812 | -112.71631 | 26281 ft | 445 kts | 121° |
| 2026-04-26 21:34 | 50.66145 | -112.67502 | 26603 ft | 448 kts | 121° |
| 2026-04-26 21:34 | 50.64466 | -112.63349 | 26942 ft | 450 kts | 121° |
| 2026-04-26 21:35 | 50.62796 | -112.59225 | 27262 ft | 452 kts | 121° |
| 2026-04-26 21:35 | 50.61097 | -112.55037 | 27577 ft | 455 kts | 121° |
| 2026-04-26 21:35 | 50.59390 | -112.50834 | 27889 ft | 457 kts | 121° |
| 2026-04-26 21:35 | 50.57670 | -112.46607 | 28192 ft | 459 kts | 121° |
| 2026-04-26 21:36 | 50.55942 | -112.42369 | 28500 ft | 461 kts | 121° |
| 2026-04-26 21:36 | 50.54789 | -112.39542 | 28706 ft | 463 kts | 121° |
| 2026-04-26 21:36 | 50.52452 | -112.33827 | 29062 ft | 467 kts | 121° |
| 2026-04-26 21:36 | 50.50685 | -112.29512 | 29302 ft | 470 kts | 121° |
| 2026-04-26 21:37 | 50.49509 | -112.26645 | 29494 ft | 471 kts | 121° |
| 2026-04-26 21:37 | 50.47725 | -112.22301 | 29753 ft | 474 kts | 122° |
| 2026-04-26 21:37 | 50.45935 | -112.17949 | 30029 ft | 476 kts | 122° |
| 2026-04-26 21:37 | 50.44129 | -112.13567 | 30285 ft | 478 kts | 122° |
| 2026-04-26 21:38 | 50.42319 | -112.09183 | 30533 ft | 479 kts | 122° |
| 2026-04-26 21:38 | 50.40502 | -112.04790 | 30839 ft | 479 kts | 122° |
| 2026-04-26 21:38 | 50.38691 | -112.00416 | 31187 ft | 477 kts | 123° |
| 2026-04-26 21:38 | 50.36886 | -111.96065 | 31555 ft | 475 kts | 123° |
| 2026-04-26 21:39 | 50.35106 | -111.91781 | 31823 ft | 476 kts | 123° |
| 2026-04-26 21:39 | 50.33301 | -111.87443 | 32106 ft | 476 kts | 123° |
| 2026-04-26 21:39 | 50.31493 | -111.83108 | 32378 ft | 476 kts | 123° |
| 2026-04-26 21:39 | 50.29671 | -111.78745 | 32645 ft | 476 kts | 123° |
| 2026-04-26 21:40 | 50.27859 | -111.74414 | 32908 ft | 476 kts | 123° |
| 2026-04-26 21:40 | 50.26038 | -111.70067 | 33173 ft | 476 kts | 123° |
| 2026-04-26 21:40 | 50.24240 | -111.65783 | 33423 ft | 477 kts | 123° |
| 2026-04-26 21:40 | 50.22416 | -111.61443 | 33653 ft | 477 kts | 124° |
| 2026-04-26 21:41 | 50.20583 | -111.57089 | 33851 ft | 479 kts | 124° |
| 2026-04-26 21:41 | 50.18749 | -111.52740 | 34098 ft | 479 kts | 124° |
| 2026-04-26 21:41 | 50.16915 | -111.48398 | 34329 ft | 479 kts | 124° |
| 2026-04-26 21:41 | 50.15103 | -111.44118 | 34528 ft | 479 kts | 124° |
| 2026-04-26 21:42 | 50.13263 | -111.39775 | 34729 ft | 479 kts | 124° |
| 2026-04-26 21:42 | 50.11425 | -111.35444 | 34926 ft | 479 kts | 124° |
| 2026-04-26 21:42 | 50.09588 | -111.31119 | 35119 ft | 479 kts | 124° |
| 2026-04-26 21:42 | 50.07746 | -111.26790 | 35210 ft | 479 kts | 124° |
| 2026-04-26 21:43 | 50.03970 | -111.18275 | 35173 ft | 475 kts | 133° |
| 2026-04-26 21:43 | 49.99566 | -111.10604 | 35174 ft | 476 kts | 133° |
| 2026-04-26 21:44 | 49.95186 | -111.02989 | 35164 ft | 475 kts | 133° |
| 2026-04-26 21:44 | 49.90770 | -110.95339 | 35202 ft | 475 kts | 133° |
| 2026-04-26 21:45 | 49.86353 | -110.87711 | 35200 ft | 474 kts | 134° |
| 2026-04-26 21:45 | 49.81934 | -110.80103 | 35213 ft | 474 kts | 134° |
| 2026-04-26 21:46 | 49.77524 | -110.72531 | 35204 ft | 475 kts | 134° |
| 2026-04-26 21:46 | 49.73083 | -110.64931 | 35202 ft | 475 kts | 134° |
| 2026-04-26 21:47 | 49.68673 | -110.57403 | 35197 ft | 475 kts | 134° |
| 2026-04-26 21:47 | 49.64228 | -110.49840 | 35194 ft | 475 kts | 134° |
| 2026-04-26 21:48 | 49.59780 | -110.42292 | 35183 ft | 475 kts | 134° |
| 2026-04-26 21:48 | 49.55335 | -110.34774 | 35189 ft | 475 kts | 135° |
| 2026-04-26 21:49 | 49.50902 | -110.27297 | 35158 ft | 474 kts | 135° |
| 2026-04-26 21:49 | 49.46439 | -110.19790 | 35167 ft | 478 kts | 135° |
| 2026-04-26 21:50 | 49.41916 | -110.12205 | 35168 ft | 483 kts | 135° |
| 2026-04-26 21:50 | 49.37367 | -110.04598 | 35153 ft | 483 kts | 135° |
| 2026-04-26 21:51 | 49.32815 | -109.97009 | 35158 ft | 483 kts | 135° |
| 2026-04-26 21:51 | 49.28282 | -109.89473 | 35138 ft | 484 kts | 136° |
| 2026-04-26 21:52 | 49.23694 | -109.81869 | 35126 ft | 484 kts | 136° |
| 2026-04-26 21:52 | 49.19122 | -109.74315 | 35126 ft | 484 kts | 136° |
| 2026-04-26 21:53 | 49.14550 | -109.66782 | 35115 ft | 483 kts | 136° |
| 2026-04-26 21:53 | 49.09998 | -109.59302 | 35127 ft | 483 kts | 136° |
| 2026-04-26 21:54 | 49.05412 | -109.51790 | 35130 ft | 483 kts | 136° |
| 2026-04-26 21:54 | 49.00815 | -109.44281 | 35129 ft | 483 kts | 136° |
| 2026-04-26 21:55 | 48.96250 | -109.36845 | 35127 ft | 483 kts | 137° |
| 2026-04-26 21:55 | 48.91647 | -109.29371 | 35124 ft | 483 kts | 137° |
| 2026-04-26 21:56 | 48.87067 | -109.21955 | 35116 ft | 483 kts | 137° |
| 2026-04-26 21:56 | 48.82457 | -109.14511 | 35118 ft | 483 kts | 137° |
| 2026-04-26 21:57 | 48.77843 | -109.07082 | 35110 ft | 483 kts | 137° |
| 2026-04-26 21:57 | 48.73244 | -108.99700 | 35102 ft | 483 kts | 137° |
| 2026-04-26 21:58 | 48.68622 | -108.92300 | 35089 ft | 483 kts | 138° |
| 2026-04-26 21:58 | 48.64002 | -108.84924 | 35091 ft | 483 kts | 138° |
| 2026-04-26 21:59 | 48.59383 | -108.77573 | 35080 ft | 481 kts | 138° |
| 2026-04-26 21:59 | 48.54795 | -108.70290 | 35084 ft | 481 kts | 138° |
| 2026-04-26 22:00 | 48.50176 | -108.62981 | 35079 ft | 481 kts | 139° |
| 2026-04-26 22:00 | 48.45574 | -108.55716 | 35054 ft | 481 kts | 139° |
| 2026-04-26 22:01 | 48.40946 | -108.48432 | 35067 ft | 480 kts | 139° |
| 2026-04-26 22:01 | 48.36326 | -108.41181 | 35063 ft | 479 kts | 139° |
| 2026-04-26 22:02 | 48.32481 | -108.35161 | 35062 ft | 479 kts | 139° |
| 2026-04-26 22:02 | 48.27095 | -108.26754 | 35040 ft | 479 kts | 140° |
| 2026-04-26 22:03 | 48.22468 | -108.19553 | 35058 ft | 479 kts | 140° |
| 2026-04-26 22:03 | 48.17832 | -108.12358 | 35060 ft | 479 kts | 140° |
| 2026-04-26 22:04 | 48.13214 | -108.05209 | 35053 ft | 479 kts | 140° |
| 2026-04-26 22:04 | 48.08573 | -107.98046 | 35038 ft | 479 kts | 140° |
| 2026-04-26 22:05 | 48.03937 | -107.90909 | 35058 ft | 477 kts | 140° |
| 2026-04-26 22:05 | 47.99317 | -107.83818 | 35050 ft | 477 kts | 140° |
| 2026-04-26 22:06 | 47.94678 | -107.76717 | 35061 ft | 477 kts | 140° |
| 2026-04-26 22:06 | 47.90035 | -107.69628 | 35046 ft | 475 kts | 141° |
| 2026-04-26 22:07 | 47.85417 | -107.62597 | 35052 ft | 474 kts | 141° |
| 2026-04-26 22:07 | 47.80823 | -107.55623 | 35055 ft | 474 kts | 141° |
| 2026-04-26 22:08 | 47.76202 | -107.48624 | 35055 ft | 474 kts | 142° |
| 2026-04-26 22:08 | 47.71572 | -107.41633 | 35041 ft | 473 kts | 142° |
| 2026-04-26 22:09 | 47.66971 | -107.34701 | 35054 ft | 473 kts | 142° |
| 2026-04-26 22:09 | 47.62345 | -107.27753 | 35061 ft | 473 kts | 142° |
| 2026-04-26 22:10 | 47.57702 | -107.20798 | 35044 ft | 473 kts | 142° |
| 2026-04-26 22:10 | 47.53063 | -107.13865 | 35032 ft | 473 kts | 142° |
| 2026-04-26 22:11 | 47.48448 | -107.06988 | 35025 ft | 473 kts | 142° |
| 2026-04-26 22:11 | 47.43799 | -107.00079 | 35004 ft | 473 kts | 142° |
| 2026-04-26 22:12 | 47.39173 | -106.93221 | 35001 ft | 473 kts | 142° |
| 2026-04-26 22:12 | 47.34524 | -106.86349 | 35058 ft | 472 kts | 142° |
| 2026-04-26 22:13 | 47.29880 | -106.79502 | 35044 ft | 471 kts | 142° |
| 2026-04-26 22:13 | 47.25239 | -106.72677 | 35048 ft | 470 kts | 142° |
| 2026-04-26 22:14 | 47.20638 | -106.65927 | 35019 ft | 470 kts | 142° |
| 2026-04-26 22:14 | 47.16013 | -106.59161 | 35029 ft | 468 kts | 142° |
| 2026-04-26 22:15 | 47.11386 | -106.52410 | 35044 ft | 468 kts | 142° |
| 2026-04-26 22:15 | 47.06757 | -106.45672 | 35026 ft | 468 kts | 142° |
| 2026-04-26 22:16 | 47.02154 | -106.38986 | 34996 ft | 467 kts | 142° |
| 2026-04-26 22:16 | 46.97535 | -106.32293 | 35017 ft | 466 kts | 142° |
| 2026-04-26 22:17 | 46.92943 | -106.25658 | 35006 ft | 466 kts | 142° |
| 2026-04-26 22:17 | 46.88317 | -106.18988 | 34994 ft | 466 kts | 142° |
| 2026-04-26 22:18 | 46.83693 | -106.12340 | 34975 ft | 464 kts | 142° |
| 2026-04-26 22:18 | 46.79104 | -106.05757 | 34965 ft | 464 kts | 142° |
| 2026-04-26 22:19 | 46.74504 | -105.99162 | 34958 ft | 465 kts | 140° |
| 2026-04-26 22:19 | 46.70049 | -105.92297 | 34930 ft | 466 kts | 140° |
| 2026-04-26 22:20 | 46.66343 | -105.86609 | 34895 ft | 465 kts | 140° |
| 2026-04-26 22:20 | 46.61156 | -105.78675 | 34888 ft | 465 kts | 140° |
| 2026-04-26 22:21 | 46.56686 | -105.71857 | 34885 ft | 465 kts | 140° |
| 2026-04-26 22:21 | 46.52219 | -105.65060 | 34882 ft | 465 kts | 140° |
| 2026-04-26 22:22 | 46.48498 | -105.59412 | 34879 ft | 465 kts | 140° |
| 2026-04-26 22:22 | 46.44039 | -105.52659 | 34878 ft | 465 kts | 140° |
| 2026-04-26 22:23 | 46.39552 | -105.45881 | 34878 ft | 465 kts | 140° |
| 2026-04-26 22:23 | 46.34342 | -105.38032 | 34858 ft | 465 kts | 140° |
| 2026-04-26 22:24 | 46.30581 | -105.32381 | 34868 ft | 464 kts | 140° |
| 2026-04-26 22:24 | 46.26124 | -105.25696 | 34866 ft | 464 kts | 140° |
| 2026-04-26 22:25 | 46.21833 | -105.18664 | 34878 ft | 469 kts | 134° |
| 2026-04-26 22:25 | 46.17769 | -105.11290 | 34877 ft | 469 kts | 135° |
| 2026-04-26 22:26 | 46.13669 | -105.03992 | 34880 ft | 467 kts | 135° |
| 2026-04-26 22:26 | 46.09586 | -104.96757 | 34880 ft | 467 kts | 135° |
| 2026-04-26 22:27 | 46.05473 | -104.89490 | 34894 ft | 467 kts | 135° |
| 2026-04-26 22:27 | 46.01355 | -104.82231 | 34889 ft | 467 kts | 135° |
| 2026-04-26 22:28 | 45.97240 | -104.74997 | 34897 ft | 468 kts | 135° |
| 2026-04-26 22:28 | 45.93130 | -104.67790 | 34906 ft | 468 kts | 135° |
| 2026-04-26 22:29 | 45.88998 | -104.60563 | 34911 ft | 468 kts | 135° |
| 2026-04-26 22:29 | 45.84863 | -104.53350 | 34912 ft | 468 kts | 135° |
| 2026-04-26 22:30 | 45.80740 | -104.46176 | 34910 ft | 468 kts | 135° |
| 2026-04-26 22:30 | 45.76591 | -104.38976 | 34920 ft | 468 kts | 135° |
| 2026-04-26 22:31 | 45.72433 | -104.31780 | 34920 ft | 468 kts | 135° |
| 2026-04-26 22:31 | 45.68279 | -104.24608 | 34922 ft | 468 kts | 135° |
| 2026-04-26 22:32 | 45.64146 | -104.17490 | 34913 ft | 467 kts | 135° |
| 2026-04-26 22:32 | 45.59992 | -104.10354 | 34922 ft | 467 kts | 135° |
| 2026-04-26 22:33 | 45.53778 | -103.99715 | 34918 ft | 466 kts | 135° |
| 2026-04-26 22:34 | 45.49609 | -103.92599 | 34918 ft | 465 kts | 136° |
| 2026-04-26 22:34 | 45.45490 | -103.85584 | 34927 ft | 464 kts | 136° |
| 2026-04-26 22:35 | 45.41341 | -103.78539 | 34924 ft | 464 kts | 136° |
| 2026-04-26 22:35 | 45.37192 | -103.71511 | 34925 ft | 463 kts | 136° |
| 2026-04-26 22:36 | 45.33036 | -103.64488 | 34906 ft | 462 kts | 136° |
| 2026-04-26 22:36 | 45.28917 | -103.57544 | 34924 ft | 461 kts | 136° |
| 2026-04-26 22:37 | 45.24768 | -103.50568 | 34933 ft | 461 kts | 136° |
| 2026-04-26 22:37 | 45.20642 | -103.43647 | 34934 ft | 461 kts | 136° |
| 2026-04-26 22:38 | 45.16482 | -103.36688 | 34926 ft | 461 kts | 136° |
| 2026-04-26 22:38 | 45.12318 | -103.29739 | 34946 ft | 462 kts | 136° |
| 2026-04-26 22:39 | 45.08182 | -103.22853 | 34940 ft | 462 kts | 136° |
| 2026-04-26 22:39 | 45.04006 | -103.15917 | 34944 ft | 462 kts | 136° |
| 2026-04-26 22:40 | 44.99839 | -103.09012 | 34930 ft | 461 kts | 136° |
| 2026-04-26 22:40 | 44.95706 | -103.02183 | 34945 ft | 458 kts | 136° |
| 2026-04-26 22:41 | 44.91560 | -102.95346 | 34946 ft | 458 kts | 136° |
| 2026-04-26 22:41 | 44.87402 | -102.88508 | 34952 ft | 458 kts | 136° |
| 2026-04-26 22:42 | 44.83243 | -102.81684 | 34945 ft | 457 kts | 136° |
| 2026-04-26 22:42 | 44.79118 | -102.74934 | 34947 ft | 457 kts | 136° |
| 2026-04-26 22:43 | 44.74964 | -102.68150 | 34947 ft | 457 kts | 136° |
| 2026-04-26 22:43 | 44.70804 | -102.61375 | 34951 ft | 457 kts | 136° |
| 2026-04-26 22:44 | 44.66648 | -102.54619 | 34933 ft | 455 kts | 136° |
| 2026-04-26 22:44 | 44.62536 | -102.47954 | 34946 ft | 454 kts | 136° |
| 2026-04-26 22:45 | 44.58394 | -102.41256 | 34966 ft | 454 kts | 136° |
| 2026-04-26 22:45 | 44.54253 | -102.34575 | 34963 ft | 453 kts | 136° |
| 2026-04-26 22:46 | 44.50098 | -102.27886 | 34955 ft | 454 kts | 136° |
| 2026-04-26 22:46 | 44.45963 | -102.21246 | 34964 ft | 455 kts | 136° |
| 2026-04-26 22:47 | 44.41785 | -102.14552 | 34954 ft | 455 kts | 136° |
| 2026-04-26 22:47 | 44.37642 | -102.07929 | 34960 ft | 455 kts | 136° |
| 2026-04-26 22:48 | 44.33447 | -102.01241 | 34955 ft | 459 kts | 135° |
| 2026-04-26 22:48 | 44.29228 | -101.94529 | 34943 ft | 462 kts | 135° |
| 2026-04-26 22:49 | 44.24982 | -101.87790 | 34935 ft | 462 kts | 135° |
| 2026-04-26 22:49 | 44.20730 | -101.81059 | 34921 ft | 462 kts | 135° |
| 2026-04-26 22:50 | 44.16496 | -101.74370 | 34903 ft | 462 kts | 135° |
| 2026-04-26 22:50 | 44.12240 | -101.67663 | 34884 ft | 462 kts | 136° |
| 2026-04-26 22:51 | 44.07976 | -101.60960 | 34886 ft | 462 kts | 136° |
| 2026-04-26 22:51 | 44.03709 | -101.54267 | 34887 ft | 462 kts | 136° |
| 2026-04-26 22:52 | 43.99456 | -101.47614 | 35019 ft | 462 kts | 136° |
| 2026-04-26 22:52 | 43.97328 | -101.44291 | 35438 ft | 457 kts | 136° |
| 2026-04-26 22:52 | 43.95212 | -101.40989 | 35660 ft | 458 kts | 136° |
| 2026-04-26 22:52 | 43.93090 | -101.37682 | 35846 ft | 459 kts | 136° |
| 2026-04-26 22:53 | 43.90963 | -101.34380 | 36044 ft | 459 kts | 136° |
| 2026-04-26 22:53 | 43.88838 | -101.31071 | 36238 ft | 460 kts | 136° |
| 2026-04-26 22:53 | 43.86704 | -101.27756 | 36481 ft | 459 kts | 137° |
| 2026-04-26 22:53 | 43.84581 | -101.24461 | 36672 ft | 459 kts | 140° |
| 2026-04-26 22:54 | 43.82448 | -101.21156 | 36837 ft | 459 kts | 137° |
| 2026-04-26 22:54 | 43.80348 | -101.17906 | 36956 ft | 459 kts | 137° |
| 2026-04-26 22:54 | 43.78208 | -101.14597 | 36945 ft | 462 kts | 137° |
| 2026-04-26 22:55 | 43.73875 | -101.07911 | 36943 ft | 467 kts | 137° |
| 2026-04-26 22:55 | 43.69517 | -101.01203 | 36935 ft | 469 kts | 137° |
| 2026-04-26 22:56 | 43.65174 | -100.94533 | 36933 ft | 468 kts | 137° |
| 2026-04-26 22:56 | 43.60803 | -100.87836 | 36932 ft | 468 kts | 137° |
| 2026-04-26 22:57 | 43.56464 | -100.81202 | 36907 ft | 468 kts | 137° |
| 2026-04-26 22:57 | 43.52090 | -100.74532 | 36881 ft | 468 kts | 137° |
| 2026-04-26 22:58 | 43.47713 | -100.67872 | 36889 ft | 469 kts | 137° |
| 2026-04-26 22:58 | 43.43326 | -100.61212 | 36882 ft | 468 kts | 137° |
| 2026-04-26 22:59 | 43.38974 | -100.54623 | 36872 ft | 468 kts | 137° |
| 2026-04-26 22:59 | 43.34593 | -100.48003 | 36878 ft | 467 kts | 137° |
| 2026-04-26 23:00 | 43.30482 | -100.41806 | 36894 ft | 467 kts | 137° |
| 2026-04-26 23:00 | 43.26127 | -100.35254 | 36907 ft | 467 kts | 137° |
| 2026-04-26 23:01 | 43.21738 | -100.28667 | 36909 ft | 467 kts | 137° |
| 2026-04-26 23:01 | 43.17376 | -100.22135 | 36891 ft | 467 kts | 137° |
| 2026-04-26 23:02 | 43.12988 | -100.15575 | 36883 ft | 466 kts | 137° |
| 2026-04-26 23:02 | 43.08594 | -100.09023 | 36891 ft | 466 kts | 137° |
| 2026-04-26 23:03 | 43.04236 | -100.02537 | 36892 ft | 466 kts | 137° |
| 2026-04-26 23:03 | 42.99850 | -99.96025 | 36894 ft | 466 kts | 137° |
| 2026-04-26 23:04 | 42.95451 | -99.89507 | 36885 ft | 466 kts | 137° |
| 2026-04-26 23:04 | 42.91039 | -99.82986 | 36861 ft | 466 kts | 138° |
| 2026-04-26 23:05 | 42.86662 | -99.76530 | 36875 ft | 466 kts | 138° |
| 2026-04-26 23:05 | 42.82397 | -99.69846 | 36869 ft | 469 kts | 131° |
| 2026-04-26 23:06 | 42.78422 | -99.62748 | 36868 ft | 471 kts | 133° |
| 2026-04-26 23:06 | 42.74427 | -99.55758 | 36874 ft | 470 kts | 133° |
| 2026-04-26 23:07 | 42.70394 | -99.48731 | 36862 ft | 470 kts | 133° |
| 2026-04-26 23:07 | 42.66362 | -99.41723 | 36856 ft | 469 kts | 133° |
| 2026-04-26 23:08 | 42.62331 | -99.34734 | 36843 ft | 470 kts | 133° |
| 2026-04-26 23:08 | 42.58305 | -99.27769 | 36861 ft | 472 kts | 133° |
| 2026-04-26 23:09 | 42.54245 | -99.20762 | 36858 ft | 471 kts | 133° |
| 2026-04-26 23:09 | 42.50186 | -99.13772 | 36857 ft | 471 kts | 133° |
| 2026-04-26 23:10 | 42.46808 | -99.07969 | 36829 ft | 471 kts | 133° |
| 2026-04-26 23:10 | 42.42095 | -98.99889 | 36829 ft | 470 kts | 133° |
| 2026-04-26 23:11 | 42.38716 | -98.94112 | 36830 ft | 470 kts | 134° |
| 2026-04-26 23:11 | 42.34650 | -98.87173 | 36838 ft | 470 kts | 134° |
| 2026-04-26 23:12 | 42.30583 | -98.80248 | 36827 ft | 470 kts | 134° |
| 2026-04-26 23:12 | 42.26534 | -98.73372 | 36820 ft | 471 kts | 134° |
| 2026-04-26 23:13 | 42.22441 | -98.66434 | 36830 ft | 470 kts | 134° |
| 2026-04-26 23:13 | 42.18363 | -98.59540 | 36836 ft | 470 kts | 134° |
| 2026-04-26 23:14 | 42.14283 | -98.52657 | 36835 ft | 470 kts | 134° |
| 2026-04-26 23:14 | 42.10215 | -98.45811 | 36837 ft | 470 kts | 134° |
| 2026-04-26 23:15 | 42.06113 | -98.38922 | 36834 ft | 472 kts | 134° |
| 2026-04-26 23:15 | 42.01993 | -98.32019 | 36808 ft | 471 kts | 134° |
| 2026-04-26 23:16 | 41.97894 | -98.25168 | 36821 ft | 469 kts | 134° |
| 2026-04-26 23:16 | 41.93822 | -98.18377 | 36809 ft | 469 kts | 134° |
| 2026-04-26 23:17 | 41.89711 | -98.11539 | 36787 ft | 470 kts | 135° |
| 2026-04-26 23:17 | 41.85589 | -98.04694 | 36801 ft | 472 kts | 135° |
| 2026-04-26 23:18 | 41.81487 | -97.97899 | 36793 ft | 471 kts | 135° |
| 2026-04-26 23:18 | 41.77383 | -97.91117 | 36810 ft | 468 kts | 135° |
| 2026-04-26 23:19 | 41.73260 | -97.84318 | 36795 ft | 467 kts | 135° |
| 2026-04-26 23:19 | 41.69176 | -97.77599 | 36805 ft | 469 kts | 135° |
| 2026-04-26 23:20 | 41.65045 | -97.70818 | 36801 ft | 470 kts | 135° |
| 2026-04-26 23:20 | 41.60907 | -97.64039 | 36797 ft | 470 kts | 135° |
| 2026-04-26 23:21 | 41.56787 | -97.57306 | 36764 ft | 469 kts | 135° |
| 2026-04-26 23:21 | 41.52653 | -97.50566 | 36762 ft | 467 kts | 135° |
| 2026-04-26 23:22 | 41.48512 | -97.43829 | 36812 ft | 471 kts | 135° |
| 2026-04-26 23:22 | 41.44364 | -97.37095 | 36782 ft | 471 kts | 135° |
| 2026-04-26 23:23 | 41.40201 | -97.30352 | 36785 ft | 471 kts | 135° |
| 2026-04-26 23:23 | 41.36050 | -97.23645 | 36788 ft | 471 kts | 135° |
| 2026-04-26 23:24 | 41.31867 | -97.16899 | 36773 ft | 473 kts | 135° |
| 2026-04-26 23:24 | 41.27656 | -97.10124 | 36782 ft | 475 kts | 135° |
| 2026-04-26 23:25 | 41.23467 | -97.03398 | 36782 ft | 475 kts | 135° |
| 2026-04-26 23:25 | 41.19251 | -96.96645 | 36774 ft | 475 kts | 135° |
| 2026-04-26 23:26 | 41.15026 | -96.89893 | 36768 ft | 474 kts | 136° |
| 2026-04-26 23:26 | 41.10793 | -96.83143 | 36737 ft | 477 kts | 135° |
| 2026-04-26 23:27 | 41.06560 | -96.76408 | 36765 ft | 473 kts | 135° |
| 2026-04-26 23:27 | 41.02339 | -96.69706 | 36765 ft | 473 kts | 135° |
| 2026-04-26 23:28 | 40.98142 | -96.63058 | 36761 ft | 473 kts | 135° |
| 2026-04-26 23:28 | 40.93915 | -96.56375 | 36740 ft | 473 kts | 136° |
| 2026-04-26 23:29 | 40.89674 | -96.49687 | 36764 ft | 478 kts | 136° |
| 2026-04-26 23:29 | 40.85399 | -96.42957 | 36761 ft | 473 kts | 135° |
| 2026-04-26 23:30 | 40.81184 | -96.36340 | 36750 ft | 470 kts | 135° |
| 2026-04-26 23:30 | 40.76965 | -96.29729 | 36758 ft | 471 kts | 135° |
| 2026-04-26 23:31 | 40.72739 | -96.23121 | 36729 ft | 472 kts | 135° |
| 2026-04-26 23:31 | 40.68503 | -96.16511 | 36749 ft | 477 kts | 135° |
| 2026-04-26 23:32 | 40.64211 | -96.09830 | 36750 ft | 477 kts | 135° |
| 2026-04-26 23:32 | 40.59947 | -96.03206 | 36760 ft | 469 kts | 135° |
| 2026-04-26 23:33 | 40.55760 | -95.96715 | 36754 ft | 467 kts | 135° |
| 2026-04-26 23:33 | 40.51537 | -95.90184 | 36749 ft | 468 kts | 135° |
| 2026-04-26 23:34 | 40.47304 | -95.83650 | 36749 ft | 468 kts | 135° |
| 2026-04-26 23:34 | 40.43099 | -95.77174 | 36750 ft | 468 kts | 135° |
| 2026-04-26 23:35 | 40.38868 | -95.70670 | 36736 ft | 468 kts | 135° |
| 2026-04-26 23:35 | 40.34663 | -95.64222 | 36751 ft | 461 kts | 135° |
| 2026-04-26 23:36 | 40.30479 | -95.57817 | 36752 ft | 464 kts | 135° |
| 2026-04-26 23:36 | 40.26272 | -95.51392 | 36761 ft | 468 kts | 135° |
| 2026-04-26 23:37 | 40.22031 | -95.44928 | 36756 ft | 468 kts | 135° |
| 2026-04-26 23:37 | 40.17771 | -95.38449 | 36759 ft | 468 kts | 135° |
| 2026-04-26 23:38 | 40.13509 | -95.31980 | 36755 ft | 468 kts | 136° |
| 2026-04-26 23:38 | 40.09283 | -95.25580 | 36765 ft | 468 kts | 135° |
| 2026-04-26 23:39 | 40.05013 | -95.19124 | 36765 ft | 468 kts | 135° |
| 2026-04-26 23:39 | 40.00765 | -95.12718 | 36786 ft | 468 kts | 135° |
| 2026-04-26 23:40 | 39.96497 | -95.06294 | 36796 ft | 468 kts | 135° |
| 2026-04-26 23:40 | 39.92214 | -94.99860 | 36783 ft | 468 kts | 135° |
| 2026-04-26 23:41 | 39.87928 | -94.93438 | 36819 ft | 472 kts | 135° |
| 2026-04-26 23:41 | 39.83637 | -94.87018 | 36822 ft | 471 kts | 136° |
| 2026-04-26 23:42 | 39.79322 | -94.80578 | 36822 ft | 471 kts | 136° |
| 2026-04-26 23:42 | 39.72874 | -94.70977 | 36817 ft | 471 kts | 136° |
| 2026-04-26 23:43 | 39.68543 | -94.64546 | 36811 ft | 474 kts | 136° |
| 2026-04-26 23:43 | 39.64177 | -94.58076 | 36824 ft | 475 kts | 136° |
| 2026-04-26 23:44 | 39.59838 | -94.51659 | 36834 ft | 475 kts | 136° |
| 2026-04-26 23:44 | 39.55464 | -94.45205 | 36828 ft | 475 kts | 136° |
| 2026-04-26 23:45 | 39.51118 | -94.38804 | 36842 ft | 475 kts | 136° |
| 2026-04-26 23:45 | 39.46732 | -94.32358 | 36824 ft | 476 kts | 136° |
| 2026-04-26 23:46 | 39.42335 | -94.25910 | 36822 ft | 477 kts | 136° |
| 2026-04-26 23:46 | 39.37970 | -94.19521 | 36811 ft | 476 kts | 136° |
| 2026-04-26 23:47 | 39.33561 | -94.13081 | 36845 ft | 479 kts | 136° |
| 2026-04-26 23:47 | 39.29151 | -94.06653 | 36838 ft | 479 kts | 136° |
| 2026-04-26 23:48 | 39.24710 | -94.00193 | 36825 ft | 482 kts | 136° |
| 2026-04-26 23:48 | 39.20256 | -93.93727 | 36817 ft | 482 kts | 137° |
| 2026-04-26 23:49 | 39.15793 | -93.87262 | 36820 ft | 482 kts | 137° |
| 2026-04-26 23:49 | 39.11353 | -93.80844 | 36818 ft | 481 kts | 137° |
| 2026-04-26 23:50 | 39.06912 | -93.74437 | 36814 ft | 476 kts | 137° |
| 2026-04-26 23:50 | 39.02496 | -93.68080 | 36815 ft | 476 kts | 137° |
| 2026-04-26 23:51 | 38.98076 | -93.61730 | 36807 ft | 476 kts | 137° |
| 2026-04-26 23:51 | 38.93654 | -93.55389 | 36804 ft | 476 kts | 137° |
| 2026-04-26 23:52 | 38.89254 | -93.49093 | 36805 ft | 476 kts | 137° |
| 2026-04-26 23:52 | 38.84823 | -93.42765 | 36792 ft | 476 kts | 137° |
| 2026-04-26 23:53 | 38.80378 | -93.36430 | 36809 ft | 478 kts | 137° |
| 2026-04-26 23:53 | 38.76887 | -93.31464 | 36822 ft | 478 kts | 137° |
| 2026-04-26 23:54 | 38.72433 | -93.25138 | 36824 ft | 478 kts | 137° |
| 2026-04-26 23:54 | 38.67972 | -93.18817 | 36822 ft | 477 kts | 137° |
| 2026-04-26 23:55 | 38.63515 | -93.12512 | 36852 ft | 477 kts | 137° |
| 2026-04-26 23:55 | 38.59050 | -93.06209 | 36845 ft | 478 kts | 137° |
| 2026-04-26 23:56 | 38.54554 | -92.99877 | 36844 ft | 484 kts | 138° |
| 2026-04-26 23:56 | 38.50023 | -92.93506 | 36854 ft | 488 kts | 138° |
| 2026-04-26 23:57 | 38.45450 | -92.87088 | 36848 ft | 488 kts | 138° |
| 2026-04-26 23:57 | 38.40877 | -92.80682 | 36850 ft | 488 kts | 138° |
| 2026-04-26 23:58 | 38.36296 | -92.74278 | 36839 ft | 487 kts | 138° |
| 2026-04-26 23:58 | 38.31749 | -92.67932 | 36843 ft | 487 kts | 138° |
| 2026-04-26 23:59 | 38.27150 | -92.61528 | 36840 ft | 493 kts | 139° |
| 2026-04-26 23:59 | 38.22491 | -92.55053 | 36847 ft | 496 kts | 139° |
| 2026-04-27 00:00 | 38.17839 | -92.48600 | 36857 ft | 494 kts | 139° |
| 2026-04-27 00:00 | 38.13207 | -92.42188 | 36831 ft | 498 kts | 138° |
| 2026-04-27 00:01 | 38.08482 | -92.35660 | 36840 ft | 504 kts | 138° |
| 2026-04-27 00:01 | 38.03726 | -92.29102 | 36833 ft | 504 kts | 138° |
| 2026-04-27 00:02 | 37.98990 | -92.22586 | 36844 ft | 507 kts | 138° |
| 2026-04-27 00:02 | 37.93968 | -92.16422 | 36864 ft | 502 kts | 143° |
| 2026-04-27 00:03 | 37.88837 | -92.10331 | 36844 ft | 507 kts | 142° |
| 2026-04-27 00:03 | 37.83698 | -92.04182 | 36840 ft | 507 kts | 142° |
| 2026-04-27 00:04 | 37.78562 | -91.98045 | 36839 ft | 507 kts | 142° |
| 2026-04-27 00:04 | 37.73462 | -91.91964 | 36844 ft | 507 kts | 142° |
| 2026-04-27 00:05 | 37.68323 | -91.85847 | 36838 ft | 510 kts | 142° |
| 2026-04-27 00:05 | 37.63140 | -91.79691 | 36865 ft | 511 kts | 142° |
| 2026-04-27 00:06 | 37.57954 | -91.73545 | 36867 ft | 510 kts | 142° |
| 2026-04-27 00:06 | 37.52772 | -91.67414 | 36878 ft | 510 kts | 142° |
| 2026-04-27 00:07 | 37.47588 | -91.61295 | 36879 ft | 510 kts | 142° |
| 2026-04-27 00:07 | 37.42434 | -91.55222 | 36873 ft | 510 kts | 141° |
| 2026-04-27 00:08 | 37.37232 | -91.49105 | 36885 ft | 513 kts | 141° |
| 2026-04-27 00:08 | 37.31986 | -91.42948 | 36891 ft | 515 kts | 141° |
| 2026-04-27 00:09 | 37.26750 | -91.36816 | 36894 ft | 514 kts | 141° |
| 2026-04-27 00:09 | 37.21509 | -91.30690 | 36881 ft | 514 kts | 141° |
| 2026-04-27 00:10 | 37.16269 | -91.24577 | 36898 ft | 514 kts | 141° |
| 2026-04-27 00:10 | 37.11042 | -91.18491 | 36896 ft | 514 kts | 141° |
| 2026-04-27 00:11 | 37.05803 | -91.12404 | 36889 ft | 515 kts | 141° |
| 2026-04-27 00:11 | 37.00545 | -91.06307 | 36897 ft | 518 kts | 141° |
| 2026-04-27 00:12 | 36.95261 | -91.00192 | 36890 ft | 518 kts | 140° |
| 2026-04-27 00:12 | 36.89958 | -90.94067 | 36890 ft | 518 kts | 140° |
| 2026-04-27 00:13 | 36.84657 | -90.87956 | 36892 ft | 518 kts | 141° |
| 2026-04-27 00:13 | 36.79383 | -90.81888 | 36888 ft | 518 kts | 141° |
| 2026-04-27 00:14 | 36.74074 | -90.75793 | 36874 ft | 517 kts | 140° |
| 2026-04-27 00:14 | 36.68778 | -90.69723 | 36892 ft | 516 kts | 140° |
| 2026-04-27 00:15 | 36.63493 | -90.63679 | 36891 ft | 515 kts | 140° |
| 2026-04-27 00:15 | 36.58233 | -90.57674 | 36892 ft | 515 kts | 140° |
| 2026-04-27 00:16 | 36.52945 | -90.51649 | 36891 ft | 515 kts | 140° |
| 2026-04-27 00:16 | 36.47639 | -90.45615 | 36884 ft | 515 kts | 140° |
| 2026-04-27 00:17 | 36.42380 | -90.39647 | 36889 ft | 515 kts | 140° |
| 2026-04-27 00:17 | 36.37076 | -90.33640 | 36891 ft | 516 kts | 140° |
| 2026-04-27 00:18 | 36.31768 | -90.27639 | 36888 ft | 516 kts | 140° |
| 2026-04-27 00:18 | 36.26492 | -90.21686 | 36888 ft | 516 kts | 140° |
| 2026-04-27 00:19 | 36.21171 | -90.15693 | 36885 ft | 514 kts | 140° |
| 2026-04-27 00:19 | 36.15861 | -90.09724 | 36887 ft | 514 kts | 140° |
| 2026-04-27 00:20 | 36.10590 | -90.03811 | 36888 ft | 514 kts | 140° |
| 2026-04-27 00:20 | 36.05291 | -89.97877 | 36913 ft | 514 kts | 140° |
| 2026-04-27 00:21 | 35.99963 | -89.91923 | 36905 ft | 514 kts | 140° |
| 2026-04-27 00:21 | 35.94682 | -89.86031 | 36906 ft | 514 kts | 140° |
| 2026-04-27 00:22 | 35.89367 | -89.80114 | 36907 ft | 514 kts | 140° |
| 2026-04-27 00:22 | 35.84057 | -89.74212 | 36895 ft | 514 kts | 140° |
| 2026-04-27 00:23 | 35.78772 | -89.68349 | 36903 ft | 514 kts | 140° |
| 2026-04-27 00:23 | 35.73446 | -89.62453 | 36889 ft | 513 kts | 140° |
| 2026-04-27 00:24 | 35.68135 | -89.56584 | 36904 ft | 513 kts | 140° |
| 2026-04-27 00:24 | 35.62849 | -89.50753 | 36911 ft | 513 kts | 140° |
| 2026-04-27 00:25 | 35.57523 | -89.44890 | 36915 ft | 513 kts | 140° |
| 2026-04-27 00:25 | 35.52200 | -89.39040 | 36914 ft | 513 kts | 140° |
| 2026-04-27 00:26 | 35.46906 | -89.33233 | 36918 ft | 513 kts | 140° |
| 2026-04-27 00:26 | 35.41575 | -89.27395 | 36920 ft | 513 kts | 140° |
| 2026-04-27 00:27 | 35.36244 | -89.21571 | 36932 ft | 513 kts | 140° |
| 2026-04-27 00:27 | 35.30922 | -89.15764 | 36925 ft | 512 kts | 140° |
| 2026-04-27 00:28 | 35.25598 | -89.09967 | 36926 ft | 512 kts | 140° |
| 2026-04-27 00:28 | 35.20289 | -89.04197 | 36936 ft | 513 kts | 141° |
| 2026-04-27 00:29 | 35.14971 | -88.98427 | 36931 ft | 512 kts | 141° |
| 2026-04-27 00:29 | 35.09636 | -88.92647 | 36942 ft | 513 kts | 141° |
| 2026-04-27 00:30 | 35.04290 | -88.86866 | 36938 ft | 513 kts | 141° |
| 2026-04-27 00:30 | 34.98946 | -88.81097 | 36939 ft | 511 kts | 141° |
| 2026-04-27 00:31 | 34.93636 | -88.75376 | 36950 ft | 513 kts | 141° |
| 2026-04-27 00:31 | 34.88279 | -88.69613 | 36947 ft | 512 kts | 141° |
| 2026-04-27 00:32 | 34.82780 | -88.64107 | 36963 ft | 510 kts | 146° |
| 2026-04-27 00:32 | 34.77180 | -88.58830 | 36935 ft | 511 kts | 145° |
| 2026-04-27 00:33 | 34.71572 | -88.53498 | 36923 ft | 511 kts | 145° |
| 2026-04-27 00:33 | 34.65957 | -88.48164 | 36949 ft | 512 kts | 145° |
| 2026-04-27 00:34 | 34.60326 | -88.42825 | 36951 ft | 512 kts | 145° |
| 2026-04-27 00:34 | 34.54737 | -88.37534 | 36950 ft | 513 kts | 145° |
| 2026-04-27 00:35 | 34.49103 | -88.32211 | 36939 ft | 513 kts | 145° |
| 2026-04-27 00:35 | 34.43461 | -88.26890 | 36934 ft | 513 kts | 145° |
| 2026-04-27 00:36 | 34.37849 | -88.21607 | 36938 ft | 514 kts | 145° |
| 2026-04-27 00:36 | 34.32206 | -88.16304 | 36938 ft | 514 kts | 145° |
| 2026-04-27 00:37 | 34.26535 | -88.10981 | 36934 ft | 513 kts | 145° |
| 2026-04-27 00:37 | 34.20915 | -88.05718 | 36941 ft | 513 kts | 145° |
| 2026-04-27 00:38 | 34.16173 | -88.01285 | 36932 ft | 514 kts | 145° |
| 2026-04-27 00:38 | 34.10528 | -87.96014 | 36933 ft | 515 kts | 145° |
| 2026-04-27 00:39 | 34.04846 | -87.90718 | 36933 ft | 515 kts | 145° |
| 2026-04-27 00:39 | 33.99170 | -87.85438 | 36933 ft | 515 kts | 145° |
| 2026-04-27 00:40 | 33.93532 | -87.80201 | 36932 ft | 515 kts | 146° |
| 2026-04-27 00:40 | 33.87829 | -87.74914 | 36934 ft | 517 kts | 146° |
| 2026-04-27 00:41 | 33.82119 | -87.69628 | 36946 ft | 517 kts | 145° |
| 2026-04-27 00:41 | 33.76410 | -87.64354 | 36941 ft | 518 kts | 146° |
| 2026-04-27 00:42 | 33.70721 | -87.59107 | 36935 ft | 518 kts | 145° |
| 2026-04-27 00:42 | 33.65005 | -87.53844 | 36913 ft | 518 kts | 146° |
| 2026-04-27 00:43 | 33.59263 | -87.48566 | 36930 ft | 520 kts | 146° |
| 2026-04-27 00:43 | 33.53551 | -87.43324 | 36934 ft | 519 kts | 146° |
| 2026-04-27 00:44 | 33.47808 | -87.38063 | 36939 ft | 519 kts | 146° |
| 2026-04-27 00:44 | 33.42059 | -87.32805 | 36952 ft | 519 kts | 146° |
| 2026-04-27 00:45 | 33.36342 | -87.27587 | 36938 ft | 519 kts | 146° |
| 2026-04-27 00:45 | 33.30587 | -87.22342 | 36937 ft | 519 kts | 146° |
| 2026-04-27 00:46 | 33.24866 | -87.17136 | 36966 ft | 519 kts | 146° |
| 2026-04-27 00:46 | 33.19092 | -87.11892 | 36971 ft | 519 kts | 146° |
| 2026-04-27 00:47 | 33.13370 | -87.06703 | 36972 ft | 519 kts | 146° |
| 2026-04-27 00:47 | 33.07602 | -87.01483 | 36974 ft | 522 kts | 146° |
| 2026-04-27 00:48 | 33.01804 | -86.96243 | 36963 ft | 522 kts | 146° |
| 2026-04-27 00:48 | 32.96036 | -86.91039 | 36957 ft | 522 kts | 146° |
| 2026-04-27 00:49 | 32.90232 | -86.85812 | 36944 ft | 522 kts | 146° |
| 2026-04-27 00:49 | 32.84462 | -86.80623 | 36927 ft | 522 kts | 146° |
| 2026-04-27 00:50 | 32.75731 | -86.72790 | 36949 ft | 524 kts | 146° |
| 2026-04-27 00:51 | 32.69900 | -86.67569 | 36957 ft | 524 kts | 146° |
| 2026-04-27 00:51 | 32.64099 | -86.62383 | 36955 ft | 524 kts | 146° |
| 2026-04-27 00:52 | 32.58273 | -86.57184 | 36946 ft | 524 kts | 146° |
| 2026-04-27 00:52 | 32.52429 | -86.51979 | 36946 ft | 526 kts | 146° |
| 2026-04-27 00:53 | 32.46566 | -86.46764 | 36935 ft | 526 kts | 146° |
| 2026-04-27 00:53 | 32.40746 | -86.41597 | 36928 ft | 526 kts | 146° |
| 2026-04-27 00:54 | 32.34880 | -86.36396 | 36931 ft | 526 kts | 146° |
| 2026-04-27 00:54 | 32.29011 | -86.31202 | 36940 ft | 526 kts | 146° |
| 2026-04-27 00:55 | 32.23191 | -86.26060 | 36962 ft | 523 kts | 146° |
| 2026-04-27 00:55 | 32.17354 | -86.20911 | 36965 ft | 524 kts | 146° |
| 2026-04-27 00:56 | 32.11497 | -86.15752 | 36782 ft | 525 kts | 146° |
| 2026-04-27 00:56 | 32.08562 | -86.13171 | 36577 ft | 524 kts | 146° |
| 2026-04-27 00:56 | 32.05636 | -86.10600 | 36360 ft | 524 kts | 146° |
| 2026-04-27 00:56 | 32.02717 | -86.08035 | 36154 ft | 523 kts | 146° |
| 2026-04-27 00:57 | 31.99799 | -86.05475 | 35963 ft | 523 kts | 146° |
| 2026-04-27 00:57 | 31.93998 | -86.00388 | 35975 ft | 524 kts | 146° |
| 2026-04-27 00:58 | 31.88134 | -85.95256 | 35976 ft | 524 kts | 146° |
| 2026-04-27 00:58 | 31.85215 | -85.92705 | 36106 ft | 523 kts | 146° |
| 2026-04-27 00:58 | 31.82287 | -85.90147 | 36319 ft | 523 kts | 146° |
| 2026-04-27 00:58 | 31.79383 | -85.87612 | 36728 ft | 519 kts | 146° |
| 2026-04-27 00:59 | 31.76548 | -85.84969 | 36940 ft | 520 kts | 142° |
| 2026-04-27 00:59 | 31.71114 | -85.79405 | 36953 ft | 517 kts | 141° |
| 2026-04-27 01:00 | 31.65735 | -85.73857 | 36953 ft | 518 kts | 141° |
| 2026-04-27 01:00 | 31.60310 | -85.68267 | 36969 ft | 518 kts | 141° |
| 2026-04-27 01:01 | 31.54894 | -85.62696 | 36965 ft | 518 kts | 141° |
| 2026-04-27 01:01 | 31.49471 | -85.57125 | 36960 ft | 517 kts | 141° |
| 2026-04-27 01:02 | 31.44048 | -85.51565 | 36977 ft | 518 kts | 142° |
| 2026-04-27 01:02 | 31.38616 | -85.46004 | 37011 ft | 518 kts | 142° |
| 2026-04-27 01:03 | 31.33221 | -85.40489 | 37012 ft | 518 kts | 141° |
| 2026-04-27 01:03 | 31.27767 | -85.34923 | 37010 ft | 520 kts | 141° |
| 2026-04-27 01:04 | 31.22311 | -85.29364 | 36977 ft | 520 kts | 141° |
| 2026-04-27 01:04 | 31.16884 | -85.23842 | 36970 ft | 520 kts | 141° |
| 2026-04-27 01:05 | 31.11427 | -85.18299 | 36967 ft | 518 kts | 142° |
| 2026-04-27 01:05 | 31.06010 | -85.12807 | 36962 ft | 518 kts | 142° |
| 2026-04-27 01:06 | 31.00564 | -85.07292 | 36958 ft | 518 kts | 142° |
| 2026-04-27 01:06 | 30.95109 | -85.01778 | 36960 ft | 516 kts | 142° |
| 2026-04-27 01:07 | 30.89711 | -84.96330 | 36957 ft | 515 kts | 142° |
| 2026-04-27 01:07 | 30.84287 | -84.90863 | 36944 ft | 514 kts | 142° |
| 2026-04-27 01:08 | 30.78879 | -84.85421 | 36957 ft | 513 kts | 142° |
| 2026-04-27 01:08 | 30.73502 | -84.80019 | 36957 ft | 513 kts | 142° |
| 2026-04-27 01:09 | 30.68092 | -84.74592 | 36953 ft | 513 kts | 142° |
| 2026-04-27 01:09 | 30.62686 | -84.69178 | 36950 ft | 513 kts | 142° |
| 2026-04-27 01:10 | 30.57287 | -84.63779 | 36959 ft | 510 kts | 142° |
| 2026-04-27 01:10 | 30.51904 | -84.58405 | 36954 ft | 509 kts | 142° |
| 2026-04-27 01:11 | 30.46556 | -84.53072 | 36946 ft | 509 kts | 142° |
| 2026-04-27 01:11 | 30.41177 | -84.47718 | 36942 ft | 509 kts | 142° |
| 2026-04-27 01:12 | 30.35795 | -84.42367 | 36949 ft | 509 kts | 142° |
| 2026-04-27 01:12 | 30.30407 | -84.37020 | 36953 ft | 509 kts | 142° |
| 2026-04-27 01:13 | 30.25055 | -84.31715 | 36945 ft | 509 kts | 142° |
| 2026-04-27 01:13 | 30.19658 | -84.26375 | 36953 ft | 510 kts | 142° |
| 2026-04-27 01:14 | 30.14244 | -84.21026 | 36953 ft | 511 kts | 142° |
| 2026-04-27 01:14 | 30.08875 | -84.15729 | 36953 ft | 511 kts | 142° |
| 2026-04-27 01:15 | 30.03457 | -84.10392 | 36957 ft | 511 kts | 142° |
| 2026-04-27 01:15 | 29.98037 | -84.05059 | 36969 ft | 511 kts | 142° |
| 2026-04-27 01:16 | 29.92660 | -83.99776 | 36969 ft | 510 kts | 141° |
| 2026-04-27 01:16 | 29.87253 | -83.94471 | 36969 ft | 510 kts | 141° |
| 2026-04-27 01:17 | 29.81773 | -83.89282 | 36951 ft | 506 kts | 151° |
| 2026-04-27 01:17 | 29.75675 | -83.85345 | 36950 ft | 504 kts | 154° |
| 2026-04-27 01:18 | 29.69552 | -83.81396 | 36974 ft | 503 kts | 154° |
| 2026-04-27 01:18 | 29.63470 | -83.77495 | 36972 ft | 504 kts | 153° |
| 2026-04-27 01:19 | 29.57339 | -83.73567 | 36972 ft | 504 kts | 154° |
| 2026-04-27 01:19 | 29.51203 | -83.69643 | 36980 ft | 504 kts | 154° |
| 2026-04-27 01:20 | 29.45053 | -83.65714 | 36973 ft | 504 kts | 154° |
| 2026-04-27 01:20 | 29.38949 | -83.61821 | 36980 ft | 504 kts | 154° |
| 2026-04-27 01:21 | 29.32818 | -83.57915 | 36980 ft | 503 kts | 154° |
| 2026-04-27 01:21 | 29.27722 | -83.54674 | 36979 ft | 503 kts | 154° |
| 2026-04-27 01:22 | 29.21595 | -83.50781 | 36979 ft | 502 kts | 154° |
| 2026-04-27 01:22 | 29.15473 | -83.46896 | 36979 ft | 502 kts | 154° |
| 2026-04-27 01:23 | 29.09355 | -83.43020 | 36979 ft | 502 kts | 154° |
| 2026-04-27 01:23 | 29.03283 | -83.39178 | 36981 ft | 500 kts | 154° |
| 2026-04-27 01:24 | 28.97191 | -83.35329 | 36982 ft | 500 kts | 154° |
| 2026-04-27 01:24 | 28.91092 | -83.31479 | 36982 ft | 500 kts | 154° |
| 2026-04-27 01:25 | 28.85042 | -83.27666 | 36981 ft | 500 kts | 154° |
| 2026-04-27 01:25 | 28.78950 | -83.23833 | 36980 ft | 500 kts | 154° |
| 2026-04-27 01:26 | 28.72858 | -83.20004 | 36980 ft | 500 kts | 154° |
| 2026-04-27 01:26 | 28.66750 | -83.16170 | 36979 ft | 500 kts | 154° |
| 2026-04-27 01:27 | 28.60696 | -83.12376 | 36981 ft | 498 kts | 154° |
| 2026-04-27 01:27 | 28.54619 | -83.08571 | 36983 ft | 498 kts | 154° |
| 2026-04-27 01:28 | 28.48533 | -83.04767 | 36956 ft | 498 kts | 154° |
| 2026-04-27 01:28 | 28.42426 | -83.00953 | 36988 ft | 500 kts | 154° |
| 2026-04-27 01:29 | 28.36322 | -82.97147 | 36978 ft | 500 kts | 154° |
| 2026-04-27 01:29 | 28.30153 | -82.93631 | 36952 ft | 493 kts | 167° |
| 2026-04-27 01:30 | 28.23468 | -82.92265 | 36948 ft | 489 kts | 175° |
| 2026-04-27 01:30 | 28.16743 | -82.91133 | 36959 ft | 490 kts | 176° |
| 2026-04-27 01:31 | 28.09973 | -82.90052 | 36977 ft | 492 kts | 176° |
| 2026-04-27 01:31 | 28.03201 | -82.88976 | 36971 ft | 491 kts | 176° |
| 2026-04-27 01:32 | 27.96469 | -82.87881 | 36969 ft | 491 kts | 176° |
| 2026-04-27 01:32 | 27.89693 | -82.86782 | 36971 ft | 491 kts | 176° |
| 2026-04-27 01:33 | 27.82918 | -82.85683 | 36973 ft | 493 kts | 176° |
| 2026-04-27 01:33 | 27.76127 | -82.84420 | 36941 ft | 497 kts | 166° |
| 2026-04-27 01:34 | 27.69741 | -82.81341 | 36930 ft | 503 kts | 159° |
| 2026-04-27 01:34 | 27.63343 | -82.78092 | 36972 ft | 503 kts | 159° |
| 2026-04-27 01:35 | 27.57017 | -82.74850 | 36954 ft | 500 kts | 159° |
| 2026-04-27 01:35 | 27.50673 | -82.71601 | 36967 ft | 501 kts | 159° |
| 2026-04-27 01:36 | 27.44317 | -82.68350 | 36972 ft | 501 kts | 159° |
| 2026-04-27 01:36 | 27.37970 | -82.65107 | 36970 ft | 501 kts | 159° |
| 2026-04-27 01:37 | 27.31666 | -82.61891 | 36968 ft | 501 kts | 159° |
| 2026-04-27 01:37 | 27.25309 | -82.58652 | 36960 ft | 501 kts | 159° |
| 2026-04-27 01:38 | 27.18922 | -82.55400 | 36972 ft | 503 kts | 159° |
| 2026-04-27 01:38 | 27.12554 | -82.52164 | 36971 ft | 502 kts | 159° |
| 2026-04-27 01:39 | 27.06221 | -82.48949 | 36970 ft | 503 kts | 159° |
| 2026-04-27 01:39 | 26.99837 | -82.45712 | 36972 ft | 503 kts | 159° |
| 2026-04-27 01:40 | 26.93439 | -82.42471 | 36960 ft | 503 kts | 159° |
| 2026-04-27 01:40 | 26.87092 | -82.39260 | 36984 ft | 503 kts | 159° |
| 2026-04-27 01:41 | 26.80723 | -82.36043 | 36972 ft | 500 kts | 159° |
| 2026-04-27 01:41 | 26.77644 | -82.34180 | 36949 ft | 503 kts | 145° |
| 2026-04-27 01:41 | 26.75079 | -82.31591 | 36970 ft | 504 kts | 131° |
| 2026-04-27 01:42 | 26.70495 | -82.25583 | 36967 ft | 507 kts | 130° |
| 2026-04-27 01:42 | 26.65964 | -82.19509 | 36973 ft | 507 kts | 130° |
| 2026-04-27 01:43 | 26.61480 | -82.13459 | 36974 ft | 509 kts | 130° |
| 2026-04-27 01:43 | 26.56950 | -82.07353 | 36964 ft | 509 kts | 130° |
| 2026-04-27 01:44 | 26.52417 | -82.01251 | 36964 ft | 509 kts | 130° |
| 2026-04-27 01:44 | 26.47891 | -81.95166 | 36964 ft | 509 kts | 130° |
| 2026-04-27 01:45 | 26.43391 | -81.89125 | 36964 ft | 509 kts | 130° |
| 2026-04-27 01:45 | 26.38848 | -81.83035 | 36973 ft | 509 kts | 130° |
| 2026-04-27 01:46 | 26.34308 | -81.76955 | 36972 ft | 509 kts | 130° |
| 2026-04-27 01:46 | 26.29795 | -81.70922 | 36965 ft | 509 kts | 130° |
| 2026-04-27 01:47 | 26.25248 | -81.64850 | 36983 ft | 509 kts | 130° |
| 2026-04-27 01:47 | 26.20728 | -81.58822 | 36970 ft | 504 kts | 130° |
| 2026-04-27 01:48 | 26.16226 | -81.52826 | 36974 ft | 504 kts | 130° |
| 2026-04-27 01:48 | 26.11492 | -81.47096 | 36965 ft | 502 kts | 144° |
| 2026-04-27 01:48 | 26.08513 | -81.45129 | 36974 ft | 495 kts | 161° |
| 2026-04-27 01:49 | 26.05254 | -81.43890 | 36984 ft | 495 kts | 165° |
| 2026-04-27 01:49 | 25.98715 | -81.41586 | 36963 ft | 495 kts | 166° |
| 2026-04-27 01:50 | 25.92103 | -81.39348 | 36983 ft | 496 kts | 166° |
| 2026-04-27 01:50 | 25.85503 | -81.37133 | 36983 ft | 496 kts | 166° |
| 2026-04-27 01:51 | 25.78890 | -81.34917 | 36981 ft | 496 kts | 166° |
| 2026-04-27 01:51 | 25.72321 | -81.32718 | 36986 ft | 496 kts | 166° |
| 2026-04-27 01:52 | 25.65682 | -81.30499 | 36974 ft | 496 kts | 166° |
| 2026-04-27 01:52 | 25.59058 | -81.28287 | 36983 ft | 497 kts | 166° |
| 2026-04-27 01:53 | 25.52514 | -81.26104 | 36983 ft | 491 kts | 166° |
| 2026-04-27 01:53 | 25.45977 | -81.23926 | 36992 ft | 491 kts | 166° |
| 2026-04-27 01:54 | 25.39425 | -81.21746 | 36990 ft | 491 kts | 166° |
| 2026-04-27 01:54 | 25.32865 | -81.19565 | 36987 ft | 492 kts | 166° |
| 2026-04-27 01:55 | 25.26294 | -81.17383 | 36988 ft | 492 kts | 166° |
| 2026-04-27 01:55 | 25.19774 | -81.15221 | 36989 ft | 492 kts | 166° |
| 2026-04-27 01:56 | 25.09906 | -81.11953 | 36985 ft | 492 kts | 166° |
| 2026-04-27 01:56 | 25.03371 | -81.09792 | 36977 ft | 492 kts | 167° |
| 2026-04-27 01:57 | 24.96789 | -81.07617 | 36989 ft | 493 kts | 167° |
| 2026-04-27 01:57 | 24.90198 | -81.05442 | 36984 ft | 493 kts | 167° |
| 2026-04-27 01:58 | 24.83647 | -81.03283 | 36989 ft | 493 kts | 167° |
| 2026-04-27 01:58 | 24.77049 | -81.01273 | 36964 ft | 488 kts | 177° |
| 2026-04-27 01:59 | 24.70335 | -81.01226 | 36968 ft | 484 kts | 186° |
| 2026-04-27 01:59 | 24.63593 | -81.01411 | 36992 ft | 484 kts | 186° |
| 2026-04-27 02:00 | 24.56889 | -81.01628 | 36971 ft | 485 kts | 184° |
| 2026-04-27 02:00 | 24.50138 | -81.01547 | 36976 ft | 486 kts | 184° |
| 2026-04-27 02:01 | 24.43359 | -81.01497 | 36975 ft | 486 kts | 184° |
| 2026-04-27 02:01 | 24.36576 | -81.01450 | 36977 ft | 486 kts | 184° |
| 2026-04-27 02:02 | 24.29855 | -81.01403 | 36977 ft | 486 kts | 184° |
| 2026-04-27 02:02 | 24.23083 | -81.01356 | 36980 ft | 486 kts | 184° |
| 2026-04-27 02:03 | 24.16309 | -81.01310 | 36979 ft | 486 kts | 184° |
| 2026-04-27 02:03 | 24.09575 | -81.01263 | 36968 ft | 486 kts | 184° |
| 2026-04-27 02:04 | 24.02810 | -81.01216 | 36983 ft | 487 kts | 184° |
| 2026-04-27 02:04 | 23.96005 | -81.00974 | 36990 ft | 489 kts | 182° |
| 2026-04-27 02:05 | 23.90346 | -81.00733 | 36988 ft | 489 kts | 182° |
| 2026-04-27 02:05 | 23.83546 | -81.00451 | 36988 ft | 489 kts | 182° |
| 2026-04-27 02:06 | 23.76741 | -81.00169 | 36973 ft | 489 kts | 182° |
| 2026-04-27 02:06 | 23.69911 | -80.99887 | 36985 ft | 490 kts | 182° |
| 2026-04-27 02:07 | 23.63121 | -80.99606 | 36996 ft | 490 kts | 182° |
| 2026-04-27 02:07 | 23.56298 | -80.99325 | 36982 ft | 490 kts | 182° |
| 2026-04-27 02:08 | 23.49473 | -80.99044 | 36992 ft | 490 kts | 182° |
| 2026-04-27 02:08 | 23.42670 | -80.98764 | 36997 ft | 491 kts | 183° |
| 2026-04-27 02:09 | 23.35885 | -80.98485 | 36986 ft | 491 kts | 183° |
| 2026-04-27 02:09 | 23.29060 | -80.98204 | 36987 ft | 491 kts | 183° |
| 2026-04-27 02:10 | 23.22219 | -80.97916 | 36990 ft | 491 kts | 183° |
| 2026-04-27 02:10 | 23.15375 | -80.97628 | 36971 ft | 491 kts | 183° |
| 2026-04-27 02:11 | 23.08582 | -80.97341 | 36991 ft | 491 kts | 183° |
| 2026-04-27 02:11 | 23.01762 | -80.96668 | 36950 ft | 499 kts | 168° |
| 2026-04-27 02:12 | 22.95221 | -80.93939 | 36961 ft | 505 kts | 162° |
| 2026-04-27 02:12 | 22.88702 | -80.91044 | 36998 ft | 506 kts | 161° |
| 2026-04-27 02:13 | 22.82272 | -80.88152 | 36974 ft | 501 kts | 161° |
| 2026-04-27 02:13 | 22.75837 | -80.85258 | 36991 ft | 501 kts | 161° |
| 2026-04-27 02:14 | 22.69392 | -80.82363 | 36988 ft | 500 kts | 161° |
| 2026-04-27 02:14 | 22.62954 | -80.79474 | 36988 ft | 501 kts | 161° |
| 2026-04-27 02:15 | 22.56518 | -80.76588 | 36986 ft | 501 kts | 161° |
| 2026-04-27 02:15 | 22.50073 | -80.73702 | 36966 ft | 501 kts | 162° |
| 2026-04-27 02:16 | 22.43677 | -80.70840 | 36988 ft | 500 kts | 162° |
| 2026-04-27 02:16 | 22.37241 | -80.67963 | 36986 ft | 500 kts | 162° |
| 2026-04-27 02:17 | 22.30808 | -80.65090 | 36988 ft | 500 kts | 162° |
| 2026-04-27 02:17 | 22.24376 | -80.62221 | 36977 ft | 500 kts | 162° |
| 2026-04-27 02:18 | 22.17980 | -80.59371 | 36941 ft | 500 kts | 162° |
| 2026-04-27 02:18 | 22.11545 | -80.56506 | 36971 ft | 499 kts | 162° |
| 2026-04-27 02:19 | 22.05117 | -80.53647 | 36984 ft | 499 kts | 162° |
| 2026-04-27 02:19 | 21.98744 | -80.50815 | 36970 ft | 496 kts | 162° |
| 2026-04-27 02:20 | 21.92334 | -80.47970 | 36980 ft | 497 kts | 162° |
| 2026-04-27 02:20 | 21.85937 | -80.45133 | 36984 ft | 497 kts | 162° |
| 2026-04-27 02:21 | 21.79600 | -80.42325 | 36986 ft | 495 kts | 162° |
| 2026-04-27 02:21 | 21.73215 | -80.39499 | 36983 ft | 494 kts | 162° |
| 2026-04-27 02:22 | 21.66882 | -80.36699 | 36984 ft | 494 kts | 162° |
| 2026-04-27 02:22 | 21.60518 | -80.33888 | 36986 ft | 494 kts | 162° |
| 2026-04-27 02:23 | 21.54153 | -80.31079 | 36985 ft | 494 kts | 162° |
| 2026-04-27 02:23 | 21.47786 | -80.28271 | 36970 ft | 492 kts | 162° |
| 2026-04-27 02:24 | 21.41456 | -80.25483 | 36976 ft | 491 kts | 162° |
| 2026-04-27 02:24 | 21.35167 | -80.22715 | 36977 ft | 491 kts | 162° |
| 2026-04-27 02:25 | 21.28856 | -80.19940 | 36980 ft | 491 kts | 162° |
| 2026-04-27 02:25 | 21.22526 | -80.17159 | 36979 ft | 491 kts | 162° |
| 2026-04-27 02:26 | 21.16194 | -80.14381 | 36974 ft | 489 kts | 162° |
| 2026-04-27 02:26 | 21.09936 | -80.11637 | 36978 ft | 489 kts | 162° |
| 2026-04-27 02:27 | 21.03625 | -80.08872 | 36977 ft | 489 kts | 162° |
| 2026-04-27 02:27 | 20.97315 | -80.06111 | 36973 ft | 489 kts | 162° |
| 2026-04-27 02:28 | 20.91061 | -80.03376 | 36974 ft | 489 kts | 162° |
| 2026-04-27 02:28 | 20.84751 | -80.00620 | 36974 ft | 489 kts | 162° |
| 2026-04-27 02:29 | 20.78452 | -79.97870 | 36972 ft | 486 kts | 162° |
| 2026-04-27 02:29 | 20.72219 | -79.95152 | 36980 ft | 486 kts | 162° |
| 2026-04-27 02:30 | 20.65931 | -79.92413 | 36974 ft | 486 kts | 162° |
| 2026-04-27 02:30 | 20.59688 | -79.89695 | 36978 ft | 486 kts | 162° |
| 2026-04-27 02:31 | 20.53411 | -79.86965 | 36976 ft | 486 kts | 162° |
| 2026-04-27 02:31 | 20.47136 | -79.84238 | 36966 ft | 484 kts | 162° |
| 2026-04-27 02:32 | 20.40929 | -79.81544 | 36977 ft | 484 kts | 162° |
| 2026-04-27 02:32 | 20.34689 | -79.78837 | 36981 ft | 483 kts | 163° |
| 2026-04-27 02:33 | 20.28471 | -79.76142 | 36973 ft | 481 kts | 163° |
| 2026-04-27 02:33 | 20.22298 | -79.73469 | 36975 ft | 481 kts | 163° |
| 2026-04-27 02:34 | 20.16088 | -79.70782 | 36959 ft | 481 kts | 162° |
| 2026-04-27 02:34 | 20.09896 | -79.68105 | 36975 ft | 480 kts | 162° |
| 2026-04-27 02:35 | 20.03693 | -79.65425 | 36974 ft | 480 kts | 162° |
| 2026-04-27 02:35 | 20.00698 | -79.63807 | 36950 ft | 486 kts | 149° |
| 2026-04-27 02:35 | 19.98129 | -79.61452 | 36974 ft | 492 kts | 136° |
| 2026-04-27 02:36 | 19.93424 | -79.56163 | 36972 ft | 495 kts | 136° |
| 2026-04-27 02:36 | 19.88750 | -79.50788 | 36977 ft | 495 kts | 136° |
| 2026-04-27 02:37 | 19.84118 | -79.45429 | 36977 ft | 495 kts | 136° |
| 2026-04-27 02:37 | 19.79442 | -79.40022 | 36978 ft | 491 kts | 136° |
| 2026-04-27 02:38 | 19.74838 | -79.34701 | 35931 ft | 492 kts | 136° |
| 2026-04-27 02:38 | 19.72538 | -79.32046 | 34673 ft | 498 kts | 136° |
| 2026-04-27 02:38 | 19.70176 | -79.29319 | 33437 ft | 500 kts | 136° |
| 2026-04-27 02:39 | 19.67815 | -79.26597 | 32231 ft | 499 kts | 135° |
| 2026-04-27 02:39 | 19.65474 | -79.23897 | 31373 ft | 497 kts | 135° |
| 2026-04-27 02:39 | 19.63161 | -79.21232 | 30826 ft | 493 kts | 135° |
| 2026-04-27 02:39 | 19.60842 | -79.18560 | 30322 ft | 488 kts | 135° |
| 2026-04-27 02:40 | 19.58551 | -79.15924 | 29677 ft | 485 kts | 135° |
| 2026-04-27 02:40 | 19.56260 | -79.13286 | 28914 ft | 484 kts | 135° |
| 2026-04-27 02:40 | 19.53985 | -79.10669 | 28269 ft | 481 kts | 135° |
| 2026-04-27 02:40 | 19.51747 | -79.08096 | 27656 ft | 478 kts | 135° |
| 2026-04-27 02:41 | 19.49494 | -79.05506 | 27027 ft | 475 kts | 135° |
| 2026-04-27 02:41 | 19.47253 | -79.02931 | 26390 ft | 473 kts | 135° |
| 2026-04-27 02:41 | 19.45022 | -79.00371 | 25755 ft | 471 kts | 135° |
| 2026-04-27 02:41 | 19.42801 | -78.97820 | 25145 ft | 469 kts | 135° |
| 2026-04-27 02:42 | 19.40589 | -78.95282 | 24519 ft | 468 kts | 134° |
| 2026-04-27 02:42 | 19.38376 | -78.92745 | 23897 ft | 467 kts | 134° |
| 2026-04-27 02:42 | 19.36204 | -78.90254 | 23231 ft | 466 kts | 134° |
| 2026-04-27 02:42 | 19.34005 | -78.87736 | 22553 ft | 464 kts | 134° |
| 2026-04-27 02:43 | 19.31842 | -78.85258 | 21945 ft | 452 kts | 134° |
| 2026-04-27 02:43 | 19.29720 | -78.82829 | 21365 ft | 441 kts | 134° |
| 2026-04-27 02:43 | 19.27666 | -78.80478 | 20820 ft | 431 kts | 134° |
| 2026-04-27 02:43 | 19.25672 | -78.78197 | 20266 ft | 423 kts | 134° |
| 2026-04-27 02:44 | 19.23675 | -78.75913 | 19721 ft | 422 kts | 134° |
| 2026-04-27 02:44 | 19.21686 | -78.73639 | 19180 ft | 421 kts | 134° |
| 2026-04-27 02:44 | 19.19695 | -78.71365 | 18650 ft | 420 kts | 134° |
| 2026-04-27 02:44 | 19.17714 | -78.69101 | 18100 ft | 418 kts | 134° |
| 2026-04-27 02:45 | 19.15738 | -78.66846 | 17530 ft | 414 kts | 134° |
| 2026-04-27 02:45 | 19.13809 | -78.64644 | 17035 ft | 400 kts | 133° |
| 2026-04-27 02:45 | 19.11946 | -78.62518 | 16566 ft | 391 kts | 133° |
| 2026-04-27 02:45 | 19.10132 | -78.60449 | 16096 ft | 386 kts | 133° |
| 2026-04-27 02:46 | 19.08301 | -78.58362 | 15613 ft | 385 kts | 133° |
| 2026-04-27 02:46 | 19.06484 | -78.56291 | 15164 ft | 383 kts | 133° |
| 2026-04-27 02:46 | 19.04668 | -78.54222 | 14693 ft | 382 kts | 133° |
| 2026-04-27 02:46 | 19.02864 | -78.52167 | 14224 ft | 381 kts | 133° |
| 2026-04-27 02:47 | 19.01063 | -78.50116 | 13772 ft | 380 kts | 133° |
| 2026-04-27 02:47 | 18.99265 | -78.48069 | 13261 ft | 378 kts | 132° |
| 2026-04-27 02:47 | 18.97505 | -78.46066 | 12788 ft | 376 kts | 132° |
| 2026-04-27 02:47 | 18.95735 | -78.44052 | 12332 ft | 373 kts | 132° |
| 2026-04-27 02:48 | 18.93967 | -78.42046 | 11837 ft | 372 kts | 132° |
| 2026-04-27 02:48 | 18.92211 | -78.40052 | 11412 ft | 368 kts | 132° |
| 2026-04-27 02:48 | 18.90479 | -78.38084 | 11115 ft | 362 kts | 131° |
| 2026-04-27 02:48 | 18.88787 | -78.36164 | 10948 ft | 351 kts | 131° |
| 2026-04-27 02:49 | 18.87150 | -78.34306 | 10782 ft | 341 kts | 131° |
| 2026-04-27 02:49 | 18.85555 | -78.32496 | 10609 ft | 331 kts | 131° |
| 2026-04-27 02:49 | 18.84006 | -78.30739 | 10446 ft | 319 kts | 131° |
| 2026-04-27 02:49 | 18.82554 | -78.29092 | 10299 ft | 301 kts | 131° |
| 2026-04-27 02:50 | 18.81168 | -78.27522 | 10173 ft | 286 kts | 131° |
| 2026-04-27 02:50 | 18.79834 | -78.26009 | 10016 ft | 279 kts | 131° |
| 2026-04-27 02:50 | 18.78516 | -78.24516 | 9730 ft | 277 kts | 131° |
| 2026-04-27 02:50 | 18.77197 | -78.23023 | 9386 ft | 277 kts | 131° |
| 2026-04-27 02:51 | 18.75883 | -78.21535 | 9062 ft | 276 kts | 131° |
| 2026-04-27 02:51 | 18.74579 | -78.20059 | 8772 ft | 274 kts | 131° |
| 2026-04-27 02:51 | 18.73301 | -78.18612 | 8534 ft | 268 kts | 131° |
| 2026-04-27 02:51 | 18.72031 | -78.17175 | 8265 ft | 270 kts | 131° |
| 2026-04-27 02:52 | 18.70737 | -78.15710 | 7932 ft | 275 kts | 132° |
| 2026-04-27 02:52 | 18.69397 | -78.14262 | 7606 ft | 276 kts | 138° |
| 2026-04-27 02:52 | 18.67818 | -78.13122 | 7257 ft | 275 kts | 152° |
| 2026-04-27 02:52 | 18.66656 | -78.12589 | 7062 ft | 275 kts | 160° |
| 2026-04-27 02:53 | 18.64797 | -78.12115 | 6770 ft | 274 kts | 171° |
| 2026-04-27 02:53 | 18.62271 | -78.12102 | 6384 ft | 273 kts | 187° |
| 2026-04-27 02:53 | 18.60427 | -78.12558 | 6057 ft | 272 kts | 199° |
| 2026-04-27 02:53 | 18.58706 | -78.13376 | 5724 ft | 270 kts | 205° |
| 2026-04-27 02:54 | 18.57559 | -78.13883 | 5514 ft | 269 kts | 200° |
| 2026-04-27 02:54 | 18.55781 | -78.14477 | 5230 ft | 268 kts | 194° |
| 2026-04-27 02:54 | 18.53965 | -78.14909 | 4942 ft | 265 kts | 190° |
| 2026-04-27 02:54 | 18.52140 | -78.15175 | 4657 ft | 263 kts | 185° |
| 2026-04-27 02:55 | 18.50311 | -78.15277 | 4467 ft | 263 kts | 180° |
| 2026-04-27 02:55 | 18.48484 | -78.15215 | 4327 ft | 262 kts | 175° |
| 2026-04-27 02:55 | 18.46678 | -78.14993 | 4186 ft | 262 kts | 170° |
| 2026-04-27 02:55 | 18.44899 | -78.14593 | 4043 ft | 260 kts | 160° |
| 2026-04-27 02:56 | 18.43379 | -78.13608 | 3854 ft | 257 kts | 134° |
| 2026-04-27 02:56 | 18.42422 | -78.12069 | 3692 ft | 255 kts | 110° |
| 2026-04-27 02:56 | 18.42176 | -78.10251 | 3434 ft | 249 kts | 84° |
| 2026-04-27 02:56 | 18.42698 | -78.08559 | 3158 ft | 239 kts | 62° |
| 2026-04-27 02:57 | 18.43488 | -78.07059 | 2866 ft | 230 kts | 62° |
| 2026-04-27 02:57 | 18.44179 | -78.05584 | 2591 ft | 215 kts | 64° |
| 2026-04-27 02:57 | 18.44775 | -78.04218 | 2369 ft | 192 kts | 65° |
| 2026-04-27 02:57 | 18.45289 | -78.03030 | 2121 ft | 169 kts | 66° |
| 2026-04-27 02:58 | 18.45753 | -78.01960 | 1902 ft | 151 kts | 66° |
| 2026-04-27 02:58 | 18.46184 | -78.00965 | 1713 ft | 148 kts | 65° |
| 2026-04-27 02:58 | 18.46614 | -77.99980 | 1514 ft | 147 kts | 66° |
| 2026-04-27 02:58 | 18.47040 | -77.99001 | 1322 ft | 147 kts | 66° |
| 2026-04-27 02:59 | 18.47464 | -77.98020 | 1143 ft | 148 kts | 66° |
| 2026-04-27 02:59 | 18.47885 | -77.97034 | 955 ft | 147 kts | 65° |
| 2026-04-27 02:59 | 18.48309 | -77.96053 | 730 ft | 148 kts | 66° |
| 2026-04-27 02:59 | 18.48738 | -77.95069 | 501 ft | 148 kts | 66° |
| 2026-04-27 03:00 | 18.49176 | -77.94071 | 404 ft | 151 kts | 68° |
| 2026-04-27 03:00 | 18.49611 | -77.93071 | 200 ft | 150 kts | 66° |
| 2026-04-27 03:00 | 18.50038 | -77.92092 | 23 ft | 145 kts | 67° |
| 2026-04-27 03:00 | 18.50383 | -77.91299 | 14 ft | 83 kts | 66° |
| 2026-04-27 03:01 | 18.50526 | -77.90896 | 16 ft | 30 kts | 84° |
| 2026-04-27 03:01 | 18.50531 | -77.90761 | 14 ft | 18 kts | 90° |
| 2026-04-27 03:01 | 18.50500 | -77.90676 | 13 ft | 9 kts | 154° |
| 2026-04-27 03:01 | 18.50464 | -77.90688 | 13 ft | 6 kts | 230° |
| 2026-04-27 03:02 | 18.50439 | -77.90739 | 13 ft | 10 kts | 244° |
| 2026-04-27 03:02 | 18.50406 | -77.90816 | 14 ft | 13 kts | 246° |
| 2026-04-27 03:02 | 18.50365 | -77.90912 | 14 ft | 15 kts | 245° |
| 2026-04-27 03:02 | 18.50320 | -77.91016 | 13 ft | 14 kts | 245° |
| 2026-04-27 03:03 | 18.50275 | -77.91121 | 13 ft | 17 kts | 246° |
| 2026-04-27 03:03 | 18.50177 | -77.91318 | 13 ft | 11 kts | 198° |
| 2026-04-27 03:03 | 18.50102 | -77.91291 | 13 ft | 13 kts | 155° |
| 2026-04-27 03:04 | 18.50038 | -77.91261 | 12 ft | 7 kts | 156° |
| 2026-04-27 03:04 | 18.49982 | -77.91234 | 12 ft | 10 kts | 155° |
| 2026-04-27 03:04 | 18.49916 | -77.91203 | 12 ft | 11 kts | 158° |
| 2026-04-27 03:04 | 18.49865 | -77.91230 | 12 ft | 9 kts | 245° |
| 2026-04-27 03:05 | 18.49835 | -77.91298 | 13 ft | 12 kts | 244° |
| 2026-04-27 03:05 | 18.49814 | -77.91345 | 12 ft | 6 kts | 244° |
| 2026-04-27 03:05 | 18.49809 | -77.91375 | 14 ft | 3 kts | 297° |
| 2026-04-27 03:05 | 18.49832 | -77.91397 | 12 ft | 5 kts | 329° |
| 2026-04-27 03:06 | 18.49849 | -77.91405 | 12 ft | 3 kts | 336° |
| 2026-04-27 03:06 | 18.49868 | -77.91414 | 5 ft | 2 kts | 336° |
| 2026-04-27 03:06 | 18.49870 | -77.91415 | 3 ft | 0 kts | 336° |